Time;durP1;ratioP1;P1;durP2;ratioP2;P2;SDS_P1;SDS_P2;PMS_P1;PMS_P2;Temp;Humidity;BMP_temperature;BMP_pressure;BME280_temperature;BME280_humidity;BME280_pressure;Samples;Min_cycle;Max_cycle;Signal;HPM_P1;HPM_P2
2021/05/23 00:02:07;;;;;;;2.28;1.33;;;11.50;99.90;;;;;;5082786;28;20027;-87
2021/05/23 00:04:32;;;;;;;2.08;1.08;;;10.70;99.90;;;;;;5076445;28;20029;-89
2021/05/23 00:06:58;;;;;;;2.05;1.13;;;10.40;99.90;;;;;;5083596;28;20013;-89
2021/05/23 00:09:27;;;;;;;5.82;1.10;;;10.40;99.90;;;;;;5084127;28;20016;-88
2021/05/23 00:11:53;;;;;;;2.70;1.27;;;10.30;99.90;;;;;;5086384;28;20032;-86
2021/05/23 00:14:19;;;;;;;2.70;1.33;;;10.50;99.90;;;;;;5089837;28;20040;-87
2021/05/23 00:16:45;;;;;;;4.18;1.10;;;11.70;99.90;;;;;;5083934;28;20180;-88
2021/05/23 00:19:11;;;;;;;3.30;1.00;;;10.30;99.90;;;;;;5087163;28;20013;-88
2021/05/23 00:21:37;;;;;;;2.55;0.90;;;10.30;99.90;;;;;;5094565;28;20020;-87
2021/05/23 00:24:04;;;;;;;2.55;1.08;;;10.20;99.90;;;;;;5085569;28;20068;-90
2021/05/23 00:26:31;;;;;;;3.72;1.25;;;10.20;99.90;;;;;;5087302;28;20021;-88
2021/05/23 00:28:57;;;;;;;3.58;1.25;;;10.50;99.90;;;;;;5084042;28;20041;-87
2021/05/23 00:31:22;;;;;;;1.02;0.80;;;11.10;99.90;;;;;;5084240;28;20020;-87
2021/05/23 00:33:48;;;;;;;2.80;1.02;;;10.60;99.90;;;;;;5081804;28;20027;-87
2021/05/23 00:36:14;;;;;;;1.50;1.00;;;10.10;99.90;;;;;;5080892;28;20025;-87
2021/05/23 00:38:40;;;;;;;2.70;1.00;;;10.90;99.90;;;;;;5084333;28;21106;-87
2021/05/23 00:41:06;;;;;;;2.63;0.98;;;10.90;99.90;;;;;;5086090;28;20254;-88
2021/05/23 00:43:32;;;;;;;2.42;1.23;;;11.30;99.90;;;;;;5089761;28;20016;-87
2021/05/23 00:45:57;;;;;;;2.47;1.08;;;11.20;99.90;;;;;;5087223;28;20053;-86
2021/05/23 00:48:23;;;;;;;2.58;1.00;;;10.00;99.90;;;;;;5101316;28;20059;-89
2021/05/23 00:50:50;;;;;;;4.90;1.02;;;10.30;99.90;;;;;;5083283;28;20031;-87
2021/05/23 00:53:20;;;;;;;2.90;1.10;;;10.00;99.90;;;;;;5082253;28;20017;-87
2021/05/23 00:55:45;;;;;;;4.25;1.33;;;9.90;99.90;;;;;;5088386;28;20028;-89
2021/05/23 00:58:11;;;;;;;2.28;1.13;;;11.50;99.90;;;;;;5089340;28;20033;-88
2021/05/23 01:00:40;;;;;;;2.78;0.93;;;11.30;99.90;;;;;;5090787;28;20025;-87
2021/05/23 01:03:27;;;;;;;1.60;1.10;;;11.60;99.90;;;;;;5083516;28;20032;-87
2021/05/23 01:05:59;;;;;;;4.35;1.20;;;10.00;99.90;;;;;;5085664;28;20033;-87
2021/05/23 01:08:26;;;;;;;3.92;1.48;;;9.90;99.90;;;;;;5085538;28;20037;-87
2021/05/23 01:11:02;;;;;;;3.90;1.65;;;9.90;99.90;;;;;;5090798;28;20035;-86
2021/05/23 01:13:55;;;;;;;2.85;1.10;;;9.90;99.90;;;;;;5082660;28;20049;-87
2021/05/23 01:16:41;;;;;;;7.90;1.15;;;9.90;99.90;;;;;;5089125;28;20009;-87
2021/05/23 01:19:29;;;;;;;2.72;1.20;;;9.90;99.90;;;;;;5086756;28;20036;-86
2021/05/23 01:22:19;;;;;;;1.48;1.00;;;9.80;99.90;;;;;;5087546;28;20072;-88
2021/05/23 01:25:08;;;;;;;3.22;0.93;;;9.90;99.90;;;;;;5084855;28;20041;-88
2021/05/23 01:27:38;;;;;;;2.25;0.70;;;9.10;99.90;;;;;;5083169;28;20235;-88
2021/05/23 01:30:08;;;;;;;2.95;1.08;;;10.60;99.90;;;;;;5088980;28;20051;-88
2021/05/23 01:32:36;;;;;;;2.78;0.90;;;9.60;99.90;;;;;;5090151;28;20016;-88
2021/05/23 01:35:08;;;;;;;1.83;0.80;;;9.60;99.90;;;;;;5091124;28;20021;-87
2021/05/23 01:37:36;;;;;;;1.60;0.70;;;9.70;99.90;;;;;;5084769;28;20016;-88
2021/05/23 01:40:04;;;;;;;2.17;0.77;;;9.70;99.90;;;;;;5087244;28;20032;-87
2021/05/23 01:42:31;;;;;;;6.15;0.90;;;9.60;99.90;;;;;;5083984;28;20025;-88
2021/05/23 01:44:57;;;;;;;2.70;0.70;;;11.00;99.90;;;;;;5088440;28;20100;-88
2021/05/23 01:47:23;;;;;;;2.42;1.30;;;9.60;99.90;;;;;;5085149;28;22540;-89
2021/05/23 01:49:49;;;;;;;1.67;0.90;;;11.80;99.90;;;;;;5083595;28;20020;-87
2021/05/23 01:52:14;;;;;;;3.45;1.00;;;9.60;99.90;;;;;;5086816;28;20013;-90
2021/05/23 01:54:40;;;;;;;2.85;0.90;;;11.10;99.90;;;;;;5072728;28;20102;-86
2021/05/23 01:57:06;;;;;;;2.30;0.70;;;9.60;99.90;;;;;;5089554;28;20013;-86
2021/05/23 01:59:32;;;;;;;0.88;0.63;;;9.70;99.90;;;;;;5086649;28;20024;-87
2021/05/23 02:01:57;;;;;;;1.83;0.90;;;9.70;99.90;;;;;;5086120;28;20019;-88
2021/05/23 02:04:24;;;;;;;6.32;0.70;;;11.00;99.90;;;;;;5083915;28;20020;-88
2021/05/23 02:06:50;;;;;;;2.15;0.70;;;10.80;99.90;;;;;;5089741;28;20020;-88
2021/05/23 02:09:16;;;;;;;3.05;1.00;;;9.60;99.90;;;;;;5089517;28;20016;-86
2021/05/23 02:11:44;;;;;;;2.28;0.80;;;9.60;99.90;;;;;;5087259;28;20074;-87
2021/05/23 02:14:10;;;;;;;2.92;0.80;;;9.50;99.90;;;;;;5083284;28;20035;-87
2021/05/23 02:16:36;;;;;;;1.15;0.77;;;12.00;99.90;;;;;;5102209;28;20017;-88
2021/05/23 02:19:02;;;;;;;1.55;0.82;;;11.40;99.90;;;;;;5087064;28;20037;-87
2021/05/23 02:21:28;;;;;;;1.50;0.77;;;8.30;99.90;;;;;;5085531;28;20009;-87
2021/05/23 02:23:56;;;;;;;1.17;0.75;;;11.10;99.90;;;;;;5085256;28;20032;-89
2021/05/23 02:26:22;;;;;;;1.92;0.68;;;9.50;99.90;;;;;;5071091;28;20039;-88
2021/05/23 02:28:49;;;;;;;4.35;0.95;;;9.50;99.90;;;;;;5088634;28;20017;-88
2021/05/23 02:31:14;;;;;;;2.15;0.85;;;9.80;99.90;;;;;;5082733;28;20241;-87
2021/05/23 02:33:40;;;;;;;3.03;0.95;;;11.70;99.90;;;;;;5083642;28;20028;-88
2021/05/23 02:36:06;;;;;;;0.82;0.63;;;12.10;99.90;;;;;;5086051;28;20016;-88
2021/05/23 02:38:32;;;;;;;2.33;0.80;;;9.30;99.90;;;;;;5090595;28;20012;-87
2021/05/23 02:40:57;;;;;;;0.90;0.60;;;10.30;99.90;;;;;;5089032;28;20013;-87
2021/05/23 02:43:24;;;;;;;3.88;0.80;;;11.20;99.90;;;;;;5087497;28;20029;-88
2021/05/23 02:45:50;;;;;;;2.08;1.00;;;10.70;99.90;;;;;;5079761;28;20685;-88
2021/05/23 02:48:16;;;;;;;2.45;0.70;;;10.30;99.90;;;;;;5086440;28;20025;-88
2021/05/23 02:50:48;;;;;;;1.35;0.73;;;8.80;99.90;;;;;;5087855;28;20025;-88
2021/05/23 02:53:15;;;;;;;1.88;0.88;;;10.80;99.90;;;;;;5099659;28;20025;-88
2021/05/23 02:55:45;;;;;;;2.03;0.88;;;9.20;99.90;;;;;;5085714;28;20057;-87
2021/05/23 02:58:12;;;;;;;1.25;0.80;;;9.20;99.90;;;;;;5082636;28;20101;-87
2021/05/23 03:00:39;;;;;;;3.05;0.90;;;9.10;99.90;;;;;;5083030;28;20032;-89
2021/05/23 03:03:05;;;;;;;2.20;0.95;;;9.10;99.90;;;;;;5080669;28;20084;-88
2021/05/23 03:05:31;;;;;;;2.90;0.65;;;9.50;99.90;;;;;;5087459;28;20036;-88
2021/05/23 03:07:57;;;;;;;2.10;0.90;;;9.80;99.90;;;;;;5084047;28;20040;-86
2021/05/23 03:10:41;;;;;;;4.38;0.95;;;10.60;99.90;;;;;;5076180;28;20029;-88
2021/05/23 03:13:08;;;;;;;2.70;0.88;;;9.10;99.90;;;;;;5082548;28;20217;-87
2021/05/23 03:15:35;;;;;;;3.03;0.85;;;10.00;99.90;;;;;;5082004;28;20055;-88
2021/05/23 03:18:02;;;;;;;2.78;0.90;;;9.80;99.90;;;;;;5081133;28;20025;-88
2021/05/23 03:20:29;;;;;;;1.48;0.80;;;9.00;99.90;;;;;;5088995;28;20032;-87
2021/05/23 03:22:57;;;;;;;2.03;0.80;;;8.40;99.90;;;;;;5084447;28;20729;-88
2021/05/23 03:25:25;;;;;;;2.15;0.80;;;9.30;99.90;;;;;;5103533;28;20041;-90
2021/05/23 03:27:51;;;;;;;1.75;0.85;;;10.50;99.90;;;;;;5078103;28;20005;-87
2021/05/23 03:30:20;;;;;;;2.78;0.80;;;10.40;99.90;;;;;;5074792;28;20028;-87
2021/05/23 03:32:46;;;;;;;2.42;0.90;;;9.10;99.90;;;;;;5083008;28;20017;-87
2021/05/23 03:35:13;;;;;;;2.67;0.80;;;10.30;99.90;;;;;;5083612;28;20088;-87
2021/05/23 03:37:38;;;;;;;2.30;0.80;;;9.10;99.90;;;;;;5083179;28;20131;-89
2021/05/23 03:40:07;;;;;;;3.03;0.85;;;10.70;99.90;;;;;;5081033;28;20035;-84
2021/05/23 03:42:33;;;;;;;4.35;0.68;;;9.10;99.90;;;;;;5086827;28;20012;-89
2021/05/23 03:44:59;;;;;;;1.65;0.85;;;9.00;99.90;;;;;;5082484;28;20036;-88
2021/05/23 03:47:25;;;;;;;2.55;0.98;;;9.10;99.90;;;;;;5084644;28;20029;-90
2021/05/23 03:49:51;;;;;;;2.25;0.90;;;9.80;99.90;;;;;;5084070;28;20100;-89
2021/05/23 03:52:16;;;;;;;2.22;0.82;;;11.10;99.90;;;;;;5083184;28;20036;-89
2021/05/23 03:54:42;;;;;;;2.72;0.80;;;10.20;99.90;;;;;;5079835;28;20024;-89
2021/05/23 03:57:07;;;;;;;2.90;0.70;;;10.10;99.90;;;;;;5086081;28;20076;-87
2021/05/23 03:59:33;;;;;;;1.42;0.73;;;9.20;99.90;;;;;;5085459;28;20058;-87
2021/05/23 04:02:02;;;;;;;2.60;0.90;;;10.90;99.90;;;;;;5086120;28;20086;-88
2021/05/23 04:05:03;;;;;;;3.08;0.80;;;11.70;99.90;;;;;;5086505;28;20103;-88
2021/05/23 04:07:21;;;;;;;1.80;0.80;;;9.00;99.90;;;;;;5078337;28;20037;-87
2021/05/23 04:09:48;;;;;;;3.53;0.80;;;10.60;99.90;;;;;;5082704;28;20020;-88
2021/05/23 04:12:18;;;;;;;1.38;0.77;;;9.40;99.90;;;;;;5083133;28;20037;-89
2021/05/23 04:14:44;;;;;;;1.67;0.70;;;9.30;99.90;;;;;;5071358;28;20044;-89
2021/05/23 04:17:09;;;;;;;2.55;0.80;;;9.30;99.90;;;;;;5088863;28;20497;-90
2021/05/23 04:19:36;;;;;;;3.67;0.80;;;11.90;99.90;;;;;;5085325;28;20377;-87
2021/05/23 04:22:03;;;;;;;3.38;0.98;;;9.40;99.90;;;;;;5086841;28;20020;-88
2021/05/23 04:24:33;;;;;;;3.83;1.15;;;9.40;99.90;;;;;;5079033;28;20033;-87
2021/05/23 04:26:59;;;;;;;3.00;0.70;;;9.80;99.90;;;;;;5086518;28;20028;-89
2021/05/23 04:29:27;;;;;;;2.13;1.05;;;11.10;99.90;;;;;;5084703;22;20044;-84
2021/05/23 04:31:53;;;;;;;5.13;0.93;;;9.40;99.90;;;;;;5073016;28;20020;-82
2021/05/23 04:34:38;;;;;;;;;;;;;;;;;;;;;
2021/05/23 04:37:04;;;;;;;2.03;0.88;;;11.70;99.90;;;;;;5070336;28;20047;-85
2021/05/23 04:43:51;;;;;;;1.92;0.80;;;9.80;99.90;;;;;;5006674;28;20034;-83
2021/05/23 04:46:25;;;;;;;7.40;0.93;;;8.10;99.90;;;;;;5049073;28;20090;-85
2021/05/23 04:48:57;;;;;;;2.95;1.33;;;11.30;99.90;;;;;;5071226;28;20513;-83
2021/05/23 04:55:16;;;;;;;1.42;0.50;;;9.40;99.90;;;;;;5021787;28;20160;-86
2021/05/23 05:01:20;;;;;;;2.03;0.90;;;9.80;99.90;;;;;;5031899;28;20039;-83
2021/05/23 05:04:05;;;;;;;;;;;;;;;;;;;;;
2021/05/23 05:10:08;;;;;;;2.20;0.70;;;9.90;99.90;;;;;;5027745;28;20037;-84
2021/05/23 05:13:10;;;;;;;1.85;0.70;;;8.20;99.90;;;;;;5049493;28;20302;-83
2021/05/23 05:15:46;;;;;;;2.10;0.85;;;9.90;99.90;;;;;;5065886;28;20024;-81
2021/05/23 05:21:49;;;;;;;2.75;0.90;;;10.30;99.90;;;;;;5070204;28;20039;-81
2021/05/23 05:24:24;;;;;;;3.40;1.20;;;12.30;99.90;;;;;;5066979;28;20491;-85
2021/05/23 05:29:58;;;;;;;3.60;0.93;;;10.10;99.90;;;;;;5059651;28;20035;-80
2021/05/23 05:33:30;;;;;;;1.88;1.17;;;11.00;99.90;;;;;;5068508;28;20059;-82
2021/05/23 05:36:01;;;;;;;2.95;1.35;;;10.10;99.90;;;;;;4982609;28;20033;-82
2021/05/23 05:39:00;;;;;;;3.55;1.40;;;10.30;99.90;;;;;;5066957;28;20020;-83
2021/05/23 05:44:49;;;;;;;1.90;1.20;;;10.10;99.90;;;;;;5052235;28;20423;-86
2021/05/23 05:48:14;;;;;;;6.03;1.08;;;11.50;99.90;;;;;;5083613;28;20033;-83
2021/05/23 05:54:13;;;;;;;1.65;1.02;;;10.20;99.90;;;;;;5052471;28;20051;-84
2021/05/23 05:56:49;;;;;;;4.75;1.17;;;10.10;99.90;;;;;;5072600;28;20089;-83
2021/05/23 06:03:07;;;;;;;2.88;1.10;;;10.40;99.90;;;;;;5065083;28;20087;-83
2021/05/23 06:06:47;;;;;;;3.08;1.10;;;12.70;99.90;;;;;;5072775;28;20081;-86
2021/05/23 06:23:51;;;;;;;3.10;1.10;;;10.80;99.90;;;;;;4936575;29;20038;-84
2021/05/23 06:26:25;;;;;;;2.47;1.05;;;11.60;99.90;;;;;;4892403;28;20521;-81
2021/05/23 06:29:14;;;;;;;2.17;1.00;;;12.50;99.90;;;;;;4978162;28;20034;-85
2021/05/23 06:31:57;;;;;;;2.58;1.00;;;9.60;99.90;;;;;;5041958;28;20090;-83
2021/05/23 06:34:48;;;;;;;3.63;1.67;;;12.60;99.90;;;;;;5066516;28;20047;-85
2021/05/23 06:37:16;;;;;;;5.07;1.00;;;10.30;99.90;;;;;;5076049;28;20037;-82
2021/05/23 06:40:35;;;;;;;4.30;0.93;;;10.40;99.90;;;;;;5075527;28;20526;-84
2021/05/23 06:51:32;;;;;;;1.98;0.90;;;11.40;99.90;;;;;;4862305;29;20077;-84
2021/05/23 07:01:55;;;;;;;2.05;1.15;;;11.00;99.90;;;;;;4828499;29;20062;-81
2021/05/23 07:07:12;;;;;;;2.67;1.02;;;11.20;99.90;;;;;;5163201;22;20044;-86
2021/05/23 07:09:39;;;;;;;1.95;0.82;;;11.10;99.90;;;;;;5064494;28;20053;-86
2021/05/23 07:12:05;;;;;;;2.25;1.10;;;11.20;99.90;;;;;;5078726;28;20394;-87
2021/05/23 07:14:31;;;;;;;2.83;1.10;;;11.30;99.90;;;;;;5075885;28;20402;-83
2021/05/23 07:16:57;;;;;;;2.33;1.00;;;11.30;99.90;;;;;;5080983;28;20169;-83
2021/05/23 07:19:23;;;;;;;3.58;1.00;;;11.10;99.90;;;;;;5074460;28;20025;-83
2021/05/23 07:21:49;;;;;;;1.15;0.80;;;11.10;99.90;;;;;;5078581;28;20028;-84
2021/05/23 07:24:14;;;;;;;3.05;0.90;;;11.00;99.90;;;;;;5079024;28;20032;-84
2021/05/23 07:26:54;;;;;;;1.45;0.98;;;11.00;99.90;;;;;;5150300;22;20067;-84
2021/05/23 07:29:20;;;;;;;1.73;1.00;;;11.00;99.90;;;;;;5050071;28;20117;-83
2021/05/23 07:31:45;;;;;;;3.22;0.98;;;13.00;99.90;;;;;;5072206;28;20024;-84
2021/05/23 07:34:11;;;;;;;2.40;0.98;;;11.40;99.90;;;;;;5070371;28;20040;-87
2021/05/23 07:36:37;;;;;;;2.63;1.40;;;11.70;99.90;;;;;;5074205;28;20122;-84
2021/05/23 07:39:02;;;;;;;4.18;0.88;;;12.00;99.90;;;;;;5072313;28;20120;-84
2021/05/23 07:41:28;;;;;;;2.35;0.80;;;12.00;99.90;;;;;;5063586;28;20037;-85
2021/05/23 07:43:54;;;;;;;3.45;0.98;;;12.20;99.90;;;;;;5066727;28;20028;-83
2021/05/23 07:46:19;;;;;;;2.78;0.80;;;12.30;99.90;;;;;;5073650;28;20059;-85
2021/05/23 07:48:45;;;;;;;1.52;0.60;;;12.60;99.90;;;;;;5075914;28;20119;-80
2021/05/23 07:51:11;;;;;;;2.13;0.90;;;12.60;99.90;;;;;;5069528;28;20612;-82
2021/05/23 07:53:36;;;;;;;4.57;1.55;;;12.60;99.90;;;;;;5077192;28;20492;-79
2021/05/23 07:56:02;;;;;;;3.30;1.08;;;12.90;99.90;;;;;;5071180;28;20032;-81
2021/05/23 07:58:28;;;;;;;4.07;0.95;;;12.90;99.90;;;;;;5065370;28;20033;-80
2021/05/23 08:00:54;;;;;;;1.88;0.93;;;12.70;99.90;;;;;;5072662;28;20158;-82
2021/05/23 08:03:19;;;;;;;2.83;1.30;;;12.60;99.90;;;;;;5064952;28;20060;-83
2021/05/23 08:05:45;;;;;;;4.82;1.00;;;12.90;99.90;;;;;;5067036;28;20036;-84
2021/05/23 08:08:10;;;;;;;2.35;1.00;;;12.50;99.90;;;;;;5067341;28;20564;-82
2021/05/23 08:10:36;;;;;;;2.05;0.80;;;12.40;99.90;;;;;;5059769;28;20028;-83
2021/05/23 08:13:02;;;;;;;2.92;1.13;;;12.50;99.90;;;;;;5060902;28;20379;-82
2021/05/23 08:15:28;;;;;;;2.80;1.10;;;12.40;99.90;;;;;;5059638;28;20067;-80
2021/05/23 08:17:57;;;;;;;3.83;0.88;;;12.40;99.90;;;;;;5062793;28;20119;-78
2021/05/23 08:20:23;;;;;;;2.00;0.88;;;;;;;;;;5066822;28;20112;-81
2021/05/23 08:22:49;;;;;;;1.40;0.77;;;;;;;;;;5068972;28;20713;-84
2021/05/23 08:25:15;;;;;;;3.72;1.25;;;;;;;;;;5072486;28;20023;-82
2021/05/23 08:27:41;;;;;;;2.58;1.00;;;12.60;99.90;;;;;;5070087;28;20203;-84
2021/05/23 08:30:09;;;;;;;1.58;0.90;;;12.60;99.90;;;;;;5066231;28;20112;-83
2021/05/23 08:32:36;;;;;;;2.97;1.00;;;12.50;99.90;;;;;;5061624;28;20024;-83
2021/05/23 08:35:01;;;;;;;4.75;1.00;;;12.70;99.90;;;;;;5067722;28;20059;-83
2021/05/23 08:37:27;;;;;;;1.90;0.90;;;12.80;99.90;;;;;;5070007;28;20359;-83
2021/05/23 08:39:52;;;;;;;2.35;0.80;;;12.90;99.90;;;;;;5072697;28;20033;-82
2021/05/23 08:42:18;;;;;;;1.85;0.90;;;13.10;99.90;;;;;;5059497;28;20592;-81
2021/05/23 08:44:44;;;;;;;4.38;1.20;;;13.00;99.90;;;;;;5061163;28;20032;-85
2021/05/23 08:47:09;;;;;;;4.20;0.98;;;12.90;99.90;;;;;;5063997;28;20520;-83
2021/05/23 08:49:35;;;;;;;6.03;1.63;;;13.10;99.90;;;;;;5063010;28;20037;-84
2021/05/23 08:52:01;;;;;;;2.05;0.80;;;13.90;99.70;;;;;;5060657;28;20028;-83
2021/05/23 08:54:28;;;;;;;3.22;1.08;;;13.20;99.50;;;;;;5058766;28;20059;-84
2021/05/23 08:56:53;;;;;;;2.33;0.80;;;13.30;99.70;;;;;;5055968;28;20044;-80
2021/05/23 08:59:19;;;;;;;2.63;1.00;;;13.50;99.30;;;;;;5057583;28;20028;-82
2021/05/23 09:01:45;;;;;;;1.95;1.25;;;13.60;99.30;;;;;;5055555;28;20025;-81
2021/05/23 09:04:19;;;;;;;4.28;0.80;;;13.80;98.90;;;;;;5074458;28;20055;-81
2021/05/23 09:06:46;;;;;;;3.88;1.20;;;14.00;97.80;;;;;;5060083;28;20390;-81
2021/05/23 09:09:14;;;;;;;4.40;0.88;;;14.30;96.80;;;;;;5056876;28;20025;-82
2021/05/23 09:11:51;;;;;;;2.30;0.90;;;14.30;96.80;;;;;;5061799;28;20034;-82
2021/05/23 09:14:30;;;;;;;2.78;0.60;;;14.30;96.70;;;;;;5058249;28;20096;-84
2021/05/23 09:16:56;;;;;;;1.45;0.70;;;14.20;96.50;;;;;;5057093;28;20086;-83
2021/05/23 09:19:21;;;;;;;2.58;0.80;;;14.30;96.40;;;;;;5065776;28;20451;-81
2021/05/23 09:21:47;;;;;;;3.42;0.80;;;14.00;96.50;;;;;;5055748;28;20029;-85
2021/05/23 09:24:13;;;;;;;2.58;0.90;;;14.00;97.10;;;;;;5064950;28;20025;-82
2021/05/23 09:26:42;;;;;;;2.10;0.80;;;13.90;97.10;;;;;;5064750;28;20272;-82
2021/05/23 09:29:18;;;;;;;2.33;0.67;;;14.20;96.40;;;;;;5051429;28;20028;-84
2021/05/23 09:31:48;;;;;;;1.77;0.80;;;14.70;95.30;;;;;;5058102;28;20047;-81
2021/05/23 09:34:23;;;;;;;3.20;0.75;;;15.20;94.20;;;;;;5069350;28;20038;-83
2021/05/23 09:36:49;;;;;;;3.13;0.73;;;15.20;94.00;;;;;;5059303;28;20498;-83
2021/05/23 09:39:15;;;;;;;1.42;0.60;;;15.50;93.10;;;;;;5062261;28;20036;-84
2021/05/23 09:41:42;;;;;;;0.90;0.47;;;15.60;91.90;;;;;;5064437;28;20032;-82
2021/05/23 09:44:17;;;;;;;1.42;0.60;;;15.00;92.90;;;;;;5070746;28;20028;-84
2021/05/23 09:47:13;;;;;;;2.28;0.75;;;14.70;93.00;;;;;;5064555;28;20016;-83
2021/05/23 09:49:45;;;;;;;1.42;0.60;;;14.70;93.30;;;;;;5050113;28;20039;-82
2021/05/23 09:52:38;;;;;;;1.10;0.70;;;14.60;92.70;;;;;;5067575;28;20035;-84
2021/05/23 09:55:05;;;;;;;2.67;0.80;;;14.70;92.70;;;;;;5062338;28;20048;-86
2021/05/23 09:57:31;;;;;;;2.15;0.70;;;14.70;92.80;;;;;;5061281;28;20520;-84
2021/05/23 10:00:10;;;;;;;1.38;0.68;;;14.60;92.70;;;;;;5052510;28;20080;-82
2021/05/23 10:02:55;;;;;;;0.93;0.60;;;14.80;92.50;;;;;;5051984;28;20088;-84
2021/05/23 10:05:20;;;;;;;2.47;1.20;;;15.00;92.40;;;;;;5069855;28;20066;-85
2021/05/23 10:07:47;;;;;;;2.42;0.68;;;;;;;;;;5061691;28;20112;-84
2021/05/23 10:10:13;;;;;;;0.75;0.47;;;14.70;94.30;;;;;;5063477;28;20024;-81
2021/05/23 10:12:40;;;;;;;0.98;0.60;;;14.30;95.60;;;;;;5065152;28;20024;-85
2021/05/23 10:15:10;;;;;;;0.55;0.43;;;14.00;95.90;;;;;;5068467;28;20024;-83
2021/05/23 10:17:40;;;;;;;0.70;0.50;;;13.80;96.50;;;;;;5077862;28;20029;-85
2021/05/23 10:20:08;;;;;;;2.08;0.70;;;13.60;97.70;;;;;;5067978;28;20017;-83
2021/05/23 10:22:39;;;;;;;1.70;0.55;;;13.70;99.00;;;;;;5080052;28;20028;-83
2021/05/23 10:25:09;;;;;;;;;;;13.70;97.10;;;;;;5070816;28;20036;-82
2021/05/23 10:27:39;;;;;;;1.00;0.50;;;14.50;95.80;;;;;;5065514;28;19938;-84
2021/05/23 10:30:06;;;;;;;2.60;0.95;;;14.80;95.00;;;;;;5068046;28;20514;-83
2021/05/23 10:32:36;;;;;;;1.95;0.80;;;15.10;94.20;;;;;;5056123;28;20096;-82
2021/05/23 10:35:18;;;;;;;1.75;0.70;;;15.10;94.10;;;;;;5066690;28;20051;-81
2021/05/23 10:37:45;;;;;;;0.70;0.60;;;15.20;94.10;;;;;;5067522;28;20059;-80
2021/05/23 10:40:22;;;;;;;1.60;0.70;;;;;;;;;;5061569;28;20580;-82
2021/05/23 10:42:53;;;;;;;0.93;0.60;;;14.80;96.00;;;;;;5065120;28;20032;-81
2021/05/23 10:45:30;;;;;;;3.20;0.60;;;14.80;95.60;;;;;;5070309;28;20029;-85
2021/05/23 10:47:57;;;;;;;4.20;0.70;;;;;;;;;;5069586;28;20051;-82
2021/05/23 10:50:34;;;;;;;2.65;0.75;;;14.90;94.60;;;;;;5054930;28;20510;-82
2021/05/23 10:53:00;;;;;;;1.55;0.70;;;;;;;;;;5053958;28;20037;-82
2021/05/23 10:55:26;;;;;;;1.73;0.60;;;;;;;;;;5066067;28;20028;-81
2021/05/23 10:57:54;;;;;;;1.95;0.70;;;15.40;94.60;;;;;;5072738;28;20039;-83
2021/05/23 11:00:27;;;;;;;2.17;0.60;;;15.50;93.70;;;;;;5068420;28;20161;-84
2021/05/23 11:02:54;;;;;;;1.92;0.65;;;;;;;;;;5063547;28;20100;-84
2021/05/23 11:05:30;;;;;;;1.02;0.68;;;15.70;93.60;;;;;;5076770;28;20031;-82
2021/05/23 11:08:04;;;;;;;1.88;0.90;;;16.00;91.80;;;;;;5059967;28;20116;-80
2021/05/23 11:10:39;;;;;;;0.63;0.43;;;;;;;;;;5070077;28;20059;-82
2021/05/23 11:13:06;;;;;;;2.05;0.85;;;;;;;;;;5060507;28;20023;-86
2021/05/23 11:15:46;;;;;;;1.63;0.50;;;15.70;88.80;;;;;;5084438;28;20050;-85
2021/05/23 11:18:20;;;;;;;1.02;0.60;;;15.70;90.40;;;;;;5062349;28;20035;-83
2021/05/23 11:20:56;;;;;;;1.58;0.47;;;;;;;;;;5066849;28;20040;-81
2021/05/23 11:23:22;;;;;;;1.40;0.60;;;;;;;;;;5047787;28;20311;-83
2021/05/23 11:25:49;;;;;;;2.30;0.80;;;;;;;;;;5056927;28;22328;-81
2021/05/23 11:28:21;;;;;;;3.25;0.90;;;15.00;93.00;;;;;;5063338;28;20037;-83
2021/05/23 11:30:49;;;;;;;1.67;0.85;;;;;;;;;;5060944;28;20098;-83
2021/05/23 11:33:15;;;;;;;3.92;0.80;;;;;;;;;;5045994;28;20025;-83
2021/05/23 11:35:42;;;;;;;1.67;0.70;;;14.70;92.90;;;;;;5064072;28;20036;-80
2021/05/23 11:38:10;;;;;;;1.63;0.65;;;14.90;91.90;;;;;;5035140;28;20398;-86
2021/05/23 11:40:42;;;;;;;1.55;0.50;;;15.30;92.30;;;;;;5058544;28;20443;-81
2021/05/23 11:43:14;;;;;;;1.00;0.57;;;15.60;91.70;;;;;;5045506;28;20032;-82
2021/05/23 11:45:52;;;;;;;1.85;0.77;;;15.80;91.40;;;;;;5039029;28;20032;-81
2021/05/23 11:48:18;;;;;;;1.67;0.80;;;;;;;;;;5067647;28;20028;-82
2021/05/23 11:50:44;;;;;;;2.53;0.95;;;16.50;88.40;;;;;;5056296;28;20082;-83
2021/05/23 11:53:10;;;;;;;4.93;0.70;;;;;;;;;;5047400;28;20077;-80
2021/05/23 11:55:36;;;;;;;1.27;0.55;;;;;;;;;;5055185;28;20012;-84
2021/05/23 11:58:11;;;;;;;1.95;0.85;;;16.70;84.10;;;;;;5060795;28;20036;-79
2021/05/23 12:00:37;;;;;;;1.77;0.60;;;;;;;;;;5060676;28;20051;-83
2021/05/23 12:03:04;;;;;;;1.52;0.70;;;16.40;83.80;;;;;;5066181;28;20032;-82
2021/05/23 12:05:44;;;;;;;1.35;0.63;;;16.40;87.40;;;;;;5057527;28;20035;-85
2021/05/23 12:08:19;;;;;;;2.15;0.88;;;16.00;90.60;;;;;;5056056;28;20048;-85
2021/05/23 12:10:48;;;;;;;0.85;0.50;;;;;;;;;;5056969;28;20025;-86
2021/05/23 12:13:14;;;;;;;4.38;1.48;;;;;;;;;;5060398;28;20020;-83
2021/05/23 12:15:40;;;;;;;1.55;0.80;;;;;;;;;;5061399;28;20123;-83
2021/05/23 12:18:06;;;;;;;2.15;0.70;;;;;;;;;;5057866;28;20162;-84
2021/05/23 12:20:32;;;;;;;1.67;0.73;;;;;;;;;;5064096;28;20021;-83
2021/05/23 12:22:58;;;;;;;3.38;0.77;;;;;;;;;;5062206;28;20037;-85
2021/05/23 12:25:25;;;;;;;2.33;1.10;;;;;;;;;;5065464;28;20081;-85
2021/05/23 12:27:53;;;;;;;0.80;0.60;;;17.00;87.10;;;;;;5065253;28;20032;-84
2021/05/23 12:30:27;;;;;;;1.83;0.82;;;17.10;84.10;;;;;;5066897;28;20033;-89
2021/05/23 12:32:53;;;;;;;1.05;0.68;;;;;;;;;;5053629;28;20485;-82
2021/05/23 12:35:26;;;;;;;1.17;0.70;;;;;;;;;;5064143;28;20035;-86
2021/05/23 12:38:18;;;;;;;1.42;0.70;;;17.00;82.60;;;;;;5072318;28;20037;-81
2021/05/23 12:40:50;;;;;;;1.05;0.70;;;16.90;82.30;;;;;;5055677;28;20658;-82
2021/05/23 12:43:19;;;;;;;1.42;0.65;;;;;;;;;;5069784;28;20153;-83
2021/05/23 12:46:09;;;;;;;0.60;0.60;;;16.70;82.60;;;;;;5072731;28;20028;-82
2021/05/23 12:48:39;;;;;;;2.35;0.90;;;16.60;83.20;;;;;;5070401;28;20397;-83
2021/05/23 12:51:22;;;;;;;1.88;0.60;;;16.60;82.50;;;;;;5071316;28;20028;-83
2021/05/23 12:53:48;;;;;;;1.25;0.70;;;;;;;;;;5066359;28;20028;-83
2021/05/23 12:56:21;;;;;;;1.50;0.80;;;16.60;83.90;;;;;;5072468;28;20032;-82
2021/05/23 12:58:50;;;;;;;4.05;1.10;;;16.10;86.90;;;;;;5072763;28;20202;-84
2021/05/23 13:01:24;;;;;;;3.22;0.80;;;15.90;89.60;;;;;;5069883;28;20025;-83
2021/05/23 13:03:50;;;;;;;2.00;0.90;;;;;;;;;;5058070;28;20031;-81
2021/05/23 13:06:16;;;;;;;2.42;1.30;;;;;;;;;;5070204;28;20033;-83
2021/05/23 13:08:43;;;;;;;2.03;1.23;;;;;;;;;;5068467;28;20088;-84
2021/05/23 13:11:21;;;;;;;2.65;1.27;;;;;;;;;;5070686;28;20443;-83
2021/05/23 13:13:47;;;;;;;1.58;0.70;;;;;;;;;;5067804;28;20032;-82
2021/05/23 13:16:14;;;;;;;4.20;0.70;;;;;;;;;;5069001;28;20044;-86
2021/05/23 13:18:44;;;;;;;1.65;1.02;;;;;;;;;;5086200;28;20669;-82
2021/05/23 13:21:19;;;;;;;2.42;0.90;;;15.90;90.40;;;;;;5048597;28;20028;-84
2021/05/23 13:23:46;;;;;;;2.28;0.60;;;;;;;;;;5068730;28;20051;-84
2021/05/23 13:26:20;;;;;;;1.13;0.55;;;16.40;81.80;;;;;;5083922;28;20036;-85
2021/05/23 13:28:46;;;;;;;1.65;0.77;;;16.30;79.30;;;;;;5052256;28;20028;-85
2021/05/23 13:31:13;;;;;;;2.38;0.82;;;;;;;;;;5068678;28;20040;-85
2021/05/23 13:33:41;;;;;;;0.82;0.60;;;;;;;;;;5074173;28;20351;-82
2021/05/23 13:36:12;;;;;;;0.40;0.40;;;16.70;77.40;;;;;;5074140;28;20054;-85
2021/05/23 13:38:38;;;;;;;1.08;0.70;;;16.70;76.70;;;;;;5070975;28;20081;-81
2021/05/23 13:41:05;;;;;;;1.40;0.50;;;;;;;;;;5063574;28;20032;-80
2021/05/23 13:43:32;;;;;;;2.35;0.65;;;17.20;71.60;;;;;;5072035;28;20390;-83
2021/05/23 13:45:58;;;;;;;1.73;0.50;;;;;;;;;;5071850;28;20481;-81
2021/05/23 13:48:24;;;;;;;1.25;0.70;;;;;;;;;;5066436;28;20465;-81
2021/05/23 13:50:50;;;;;;;0.70;0.52;;;17.30;72.00;;;;;;5072369;28;20024;-84
2021/05/23 13:53:17;;;;;;;2.33;0.93;;;17.50;70.70;;;;;;5072552;28;20036;-83
2021/05/23 13:55:43;;;;;;;1.50;0.60;;;;;;;;;;5067670;28;20129;-83
2021/05/23 13:58:10;;;;;;;1.08;0.50;;;17.90;65.10;;;;;;5064948;28;20035;-84
2021/05/23 14:00:37;;;;;;;1.38;0.65;;;17.70;66.90;;;;;;5070613;28;20107;-84
2021/05/23 14:03:16;;;;;;;2.33;1.00;;;;;;;;;;5063720;28;20115;-84
2021/05/23 14:05:43;;;;;;;1.15;0.60;;;17.80;67.60;;;;;;5070337;28;20096;-80
2021/05/23 14:08:10;;;;;;;1.92;0.50;;;;;;;;;;5062083;28;20040;-83
2021/05/23 14:10:36;;;;;;;2.25;0.68;;;;;;;;;;5070114;28;20025;-84
2021/05/23 14:13:02;;;;;;;1.33;0.63;;;17.70;70.20;;;;;;5073206;28;20032;-83
2021/05/23 14:15:28;;;;;;;1.85;0.60;;;;;;;;;;5066066;28;20390;-82
2021/05/23 14:17:54;;;;;;;1.98;0.50;;;;;;;;;;5069091;28;20021;-85
2021/05/23 14:20:24;;;;;;;2.78;0.60;;;;;;;;;;5065150;28;20025;-85
2021/05/23 14:22:54;;;;;;;0.80;0.50;;;18.10;67.10;;;;;;5071763;28;20033;-84
2021/05/23 14:25:21;;;;;;;0.98;0.50;;;17.90;67.80;;;;;;5066950;28;20404;-85
2021/05/23 14:27:47;;;;;;;0.85;0.50;;;17.80;68.40;;;;;;5069790;28;20581;-86
2021/05/23 14:30:14;;;;;;;3.28;1.00;;;17.90;68.40;;;;;;5070534;28;20036;-84